Nearby METAR Reports

 

KSJC - San Jose, California, USA
Distance from station: Γρέγος 14km
Ενημερώθηκε: 03/03/2024 20:53
Σχεδόν νεφελώδης
Σχεδόν νεφελώδης
 Φυσάει από Σιρόκος
Ανεμος: Σιρόκος 17 km/h
Θερμοκρασία: 12°C
Πιάνει Δροσιά σε: 7°C
Υγρασία: 72%
Βαρόμετρο: 1017.9 hPa
Clouds: Σχεδόν νεφελώδης
Visibility: 16 km
Cloud details: Μερικώς νεφελώδης 762 m
Μερικώς νεφελώδης 1829 m
Σχεδόν νεφελώδης 2438 m
2024/03/03 18:53 KSJC 031853Z 14009KT 10SM SCT025 SCT060 BKN080 12/07 A3006 RMK AO2 RAE12 SLP179 P0001 T01220072
KNUQ - Moffett Nas/Mtn, California, USA
Distance from station: ΤΡΑΜΟΥΝΤΑΝΑ 14km
Ενημερώθηκε: 03/03/2024 20:55
Σχεδόν νεφελώδης
Σχεδόν νεφελώδης
 Φυσάει από ΟΣΤΡΙΑ
Ανεμος: ΟΣΤΡΙΑ 15 km/h
Θερμοκρασία: 12°C
Πιάνει Δροσιά σε: 5°C
Υγρασία: 63%
Βαρόμετρο: 1017.9 hPa
Clouds: Σχεδόν νεφελώδης
Visibility: 16 km
Cloud details: Few Clouds 884 m
Σχεδόν νεφελώδης 1036 m
Σχεδόν νεφελώδης 1219 m
2024/03/03 18:55 KNUQ 031855Z AUTO 17008KT 10SM FEW029 BKN034 BKN040 12/05 A3006 RMK AO2
 
KPAO - Palo Alto, California, USA
Distance from station: Μαΐστρο 23km
Ενημερώθηκε: 03/03/2024 20:47
Σχεδόν νεφελώδης
Σχεδόν νεφελώδης
 Φυσάει από ΟΣΤΡΙΑ
Ανεμος: ΟΣΤΡΙΑ 9 km/h
Θερμοκρασία: 11°C
Πιάνει Δροσιά σε: 6°C
Υγρασία: 72%
Βαρόμετρο: 1017.9 hPa
Clouds: Σχεδόν νεφελώδης
Visibility: 16 km
Cloud details: Μερικώς νεφελώδης 914 m
Σχεδόν νεφελώδης 1524 m
2024/03/03 18:47 KPAO 031847Z 17005KT 10SM SCT030 BKN050 11/06 A3006
KRHV - San Jose/Reid, California, USA
Distance from station: Γρέγολεβάντες 19km
Ενημερώθηκε: 03/03/2024 19:47
NOT Current
Σχεδόν νεφελώδης
Σχεδόν νεφελώδης
 Φυσάει από Σιρκόστρια
Ανεμος: Σιρκόστρια 13 km/h
Θερμοκρασία: 10°C
Wind Chill: 8°C
Πιάνει Δροσιά σε: 6°C
Υγρασία: 76%
Βαρόμετρο: 1017.9 hPa
Clouds: Σχεδόν νεφελώδης
Visibility: 16 km
Cloud details: Σχεδόν νεφελώδης 1219 m
2024/03/03 17:47 KRHV 031747Z 16007KT 10SM BKN040 10/06 A3006
 
KOAK - Oakland, California, USA
Distance from station: Μαΐστρο 50km
Ενημερώθηκε: 03/03/2024 20:53
Σχεδόν νεφελώδης
Σχεδόν νεφελώδης
 Φυσάει από calm
Ανεμος: Απνοια
Θερμοκρασία: 11°C
Πιάνει Δροσιά σε: 7°C
Υγρασία: 77%
Βαρόμετρο: 1017.9 hPa
Clouds: Σχεδόν νεφελώδης
Visibility: 16 km
Cloud details: Few Clouds 1128 m
Μερικώς νεφελώδης 1524 m
Σχεδόν νεφελώδης 2286 m
2024/03/03 18:53 KOAK 031853Z 00000KT 10SM FEW037 SCT050 BKN075 11/07 A3006 RMK AO2 RAE26 SLP179 P0000 T01060067
KSQL - San Carlos Airpo, California, USA
Distance from station: Μαϊστράλι 34km
Ενημερώθηκε: 03/03/2024 20:50
Ασθενής βροχή, Showers, Σχεδόν νεφελώδης
Ασθενής βροχή, Showers, Σχεδόν νεφελώδης
 Φυσάει από Σιρόκος
Ανεμος: Σιρόκος 7 km/h
Θερμοκρασία: 11°C
Πιάνει Δροσιά σε: 7°C
Υγρασία: 77%
Βαρόμετρο: 1017.9 hPa
Περίληψη: Ασθενής βροχή, Showers
Clouds: Σχεδόν νεφελώδης
Visibility: 16 km
Cloud details: Few Clouds 884 m
Σχεδόν νεφελώδης 1311 m
2024/03/03 18:50 KSQL 031850Z 13004KT 10SM -SHRA FEW029 BKN043 11/07 A3006
 
KSFO - San Francisco, California, USA
Distance from station: Μαϊστράλι 49km
Ενημερώθηκε: 03/03/2024 20:56
Ασθενής βροχή, Σχεδόν νεφελώδης
Ασθενής βροχή, Σχεδόν νεφελώδης
 Φυσάει από calm
Ανεμος: Απνοια
Θερμοκρασία: 10°C
Πιάνει Δροσιά σε: 6°C
Υγρασία: 76%
Βαρόμετρο: 1017.6 hPa
Περίληψη: Ασθενής βροχή
Clouds: Σχεδόν νεφελώδης
Visibility: 13 km
Cloud details: Few Clouds 549 m
Σχεδόν νεφελώδης 1189 m
Σχεδόν νεφελώδης 1463 m
2024/03/03 18:56 KSFO 031856Z 00000KT 8SM -RA FEW018 BKN039 BKN048 10/06 A3005 RMK AO2 RAB35 SLP177 P0003 T01000061 $
KE16 - San Martin, California, USA
Distance from station: Σιροκολέβαντο 43km
Ενημερώθηκε: 03/03/2024 20:55
Haze, Σχεδόν νεφελώδης
Haze, Σχεδόν νεφελώδης
 Φυσάει από Σιρκόστρια
Ανεμος: Σιρκόστρια 17 km/h
Θερμοκρασία: 10°C
Wind Chill: 8°C
Πιάνει Δροσιά σε: 7°C
Υγρασία: 82%
Βαρόμετρο: 1019 hPa
Περίληψη: Haze
Clouds: Σχεδόν νεφελώδης
Visibility: 5 km
Cloud details: Few Clouds 488 m
Μερικώς νεφελώδης 610 m
Σχεδόν νεφελώδης 853 m
2024/03/03 18:55 KE16 031855Z AUTO 15009KT 3SM HZ FEW016 SCT020 BKN028 10/07 A3009 RMK AO2 PWINO PNO
 
KWVI - Watsonville, California, USA
Distance from station: Σιρκόστρια 44km
Ενημερώθηκε: 03/03/2024 21:00
Συννεφιά
Συννεφιά
 Φυσάει από Οστριογάρμπι
Ανεμος: Οστριογάρμπι 19 km/h
Θερμοκρασία: 11°C
Πιάνει Δροσιά σε: 7°C
Υγρασία: 77%
Βαρόμετρο: 1018.6 hPa
Clouds: Συννεφιά
Visibility: 16 km
Cloud details: Μερικώς νεφελώδης 640 m
Σχεδόν νεφελώδης 1280 m
Συννεφιά 1524 m
2024/03/03 19:00 KWVI 031900Z AUTO 20010KT 10SM SCT021 BKN042 OVC050 11/07 A3008 RMK AO2 T01060072
KHAF - Half Moon Bay, California, USA
Distance from station: Πουνεντομάιστρο 50km
Ενημερώθηκε: 03/03/2024 20:55
Μερικώς νεφελώδης
Μερικώς νεφελώδης
 Φυσάει από varies
Ανεμος: varies 7 km/h
Θερμοκρασία: 10°C
Wind Chill: 9°C
Πιάνει Δροσιά σε: 8°C
Υγρασία: 88%
Βαρόμετρο: 1017.9 hPa
Clouds: Μερικώς νεφελώδης
Visibility: 11 km
Cloud details: Few Clouds 701 m
Μερικώς νεφελώδης 1006 m
Μερικώς νεφελώδης 1311 m
2024/03/03 18:55 KHAF 031855Z AUTO VRB04KT 7SM FEW023 SCT033 SCT043 10/08 A3006 RMK AO2 P0002
 
KHWD - Hayward, California, USA
Distance from station: ΤΡΑΜΟΥΝΤΑΝΑ 44km
Ενημερώθηκε: 03/03/2024 20:54
Μερικώς νεφελώδης
Μερικώς νεφελώδης
 Φυσάει από calm
Ανεμος: Απνοια
Θερμοκρασία: 12°C
Πιάνει Δροσιά σε: 8°C
Υγρασία: 77%
Βαρόμετρο: 1017.6 hPa
Clouds: Μερικώς νεφελώδης
Visibility: 16 km
Cloud details: Few Clouds 1006 m
Μερικώς νεφελώδης 1250 m
Μερικώς νεφελώδης 1524 m
2024/03/03 18:54 KHWD 031854Z 00000KT 10SM FEW033 SCT041 SCT050 12/08 A3005 RMK AO2 RAE15 SLP186 P0000 T01220078
KLVK - Livermore, California, USA
Distance from station: Γρεγοτραμουντάνα 51km
Ενημερώθηκε: 03/03/2024 20:53
Βροχή, Συννεφιά
Βροχή, Συννεφιά
 Φυσάει από Μαϊστράλι
Ανεμος: Μαϊστράλι 13 km/h
Θερμοκρασία: 8°C
Wind Chill: 6°C
Πιάνει Δροσιά σε: 6°C
Υγρασία: 87%
Βαρόμετρο: 1017.6 hPa
Περίληψη: Βροχή
Clouds: Συννεφιά
Visibility: 5 km
Cloud details: Few Clouds 549 m
Σχεδόν νεφελώδης 884 m
Συννεφιά 1189 m
2024/03/03 18:53 KLVK 031853Z 32007KT 3SM RA FEW018 BKN029 OVC039 08/06 A3005 RMK AO2 RAB09 SLP175 P0002 T00830056
Arillas Webcam
Arillas sky Webcam
Afionas Webcam
Afionas Sky Cam
Valanio Webcam
Valanio Webcam
Arillas beach Webcam
Arillas beach Webcam